sensor_id;sensor_type;location;lat;lon;timestamp;P1;durP1;ratioP1;P2;durP2;ratioP2
15354;SDS011;7777;52.254;9.618;2024-02-28T00:00:05;14.53;;;10.13;;
15354;SDS011;7777;52.254;9.618;2024-02-28T00:02:31;15.27;;;9.57;;
15354;SDS011;7777;52.254;9.618;2024-02-28T00:04:57;12.57;;;9.00;;
15354;SDS011;7777;52.254;9.618;2024-02-28T00:07:24;12.77;;;9.63;;
15354;SDS011;7777;52.254;9.618;2024-02-28T00:09:52;15.90;;;9.77;;
15354;SDS011;7777;52.254;9.618;2024-02-28T00:12:23;13.47;;;9.40;;
15354;SDS011;7777;52.254;9.618;2024-02-28T00:14:52;13.90;;;9.33;;
15354;SDS011;7777;52.254;9.618;2024-02-28T00:17:17;13.80;;;9.50;;
15354;SDS011;7777;52.254;9.618;2024-02-28T00:19:43;14.07;;;9.20;;
15354;SDS011;7777;52.254;9.618;2024-02-28T00:22:09;16.87;;;10.60;;
15354;SDS011;7777;52.254;9.618;2024-02-28T00:24:35;13.00;;;9.33;;
15354;SDS011;7777;52.254;9.618;2024-02-28T00:27:01;12.70;;;8.87;;
15354;SDS011;7777;52.254;9.618;2024-02-28T00:29:26;15.50;;;10.17;;
15354;SDS011;7777;52.254;9.618;2024-02-28T00:31:52;13.07;;;9.20;;
15354;SDS011;7777;52.254;9.618;2024-02-28T00:34:20;14.33;;;9.53;;
15354;SDS011;7777;52.254;9.618;2024-02-28T00:36:45;14.60;;;9.07;;
15354;SDS011;7777;52.254;9.618;2024-02-28T00:39:11;14.70;;;9.73;;
15354;SDS011;7777;52.254;9.618;2024-02-28T00:41:39;14.40;;;8.93;;
15354;SDS011;7777;52.254;9.618;2024-02-28T00:44:05;14.00;;;9.00;;
15354;SDS011;7777;52.254;9.618;2024-02-28T00:46:31;15.80;;;9.10;;
15354;SDS011;7777;52.254;9.618;2024-02-28T00:48:58;12.27;;;9.30;;
15354;SDS011;7777;52.254;9.618;2024-02-28T00:51:25;13.23;;;8.53;;
15354;SDS011;7777;52.254;9.618;2024-02-28T00:53:50;13.90;;;9.70;;
15354;SDS011;7777;52.254;9.618;2024-02-28T00:56:16;14.80;;;9.27;;
15354;SDS011;7777;52.254;9.618;2024-02-28T00:58:46;13.93;;;9.03;;
15354;SDS011;7777;52.254;9.618;2024-02-28T01:01:12;11.83;;;9.07;;
15354;SDS011;7777;52.254;9.618;2024-02-28T01:03:38;12.97;;;9.17;;
15354;SDS011;7777;52.254;9.618;2024-02-28T01:06:04;13.30;;;9.17;;
15354;SDS011;7777;52.254;9.618;2024-02-28T01:08:30;12.57;;;9.43;;
15354;SDS011;7777;52.254;9.618;2024-02-28T01:10:56;14.57;;;9.43;;
15354;SDS011;7777;52.254;9.618;2024-02-28T01:13:22;13.03;;;8.93;;
15354;SDS011;7777;52.254;9.618;2024-02-28T01:15:48;12.77;;;8.87;;
15354;SDS011;7777;52.254;9.618;2024-02-28T01:18:14;13.57;;;9.00;;
15354;SDS011;7777;52.254;9.618;2024-02-28T01:20:39;14.40;;;9.90;;
15354;SDS011;7777;52.254;9.618;2024-02-28T01:23:05;15.27;;;9.70;;
15354;SDS011;7777;52.254;9.618;2024-02-28T01:25:31;13.43;;;10.10;;
15354;SDS011;7777;52.254;9.618;2024-02-28T01:27:56;14.10;;;9.20;;
15354;SDS011;7777;52.254;9.618;2024-02-28T01:30:25;13.30;;;9.07;;
15354;SDS011;7777;52.254;9.618;2024-02-28T01:32:52;12.63;;;9.13;;
15354;SDS011;7777;52.254;9.618;2024-02-28T01:35:18;13.23;;;9.20;;
15354;SDS011;7777;52.254;9.618;2024-02-28T01:37:44;13.93;;;8.70;;
15354;SDS011;7777;52.254;9.618;2024-02-28T01:40:10;13.13;;;9.70;;
15354;SDS011;7777;52.254;9.618;2024-02-28T01:42:36;13.47;;;9.00;;
15354;SDS011;7777;52.254;9.618;2024-02-28T01:45:02;14.43;;;9.20;;
15354;SDS011;7777;52.254;9.618;2024-02-28T01:47:29;15.43;;;9.97;;
15354;SDS011;7777;52.254;9.618;2024-02-28T01:49:56;15.27;;;10.17;;
15354;SDS011;7777;52.254;9.618;2024-02-28T01:52:21;15.07;;;10.20;;
15354;SDS011;7777;52.254;9.618;2024-02-28T01:54:48;18.27;;;10.30;;
15354;SDS011;7777;52.254;9.618;2024-02-28T01:57:13;14.03;;;9.70;;
15354;SDS011;7777;52.254;9.618;2024-02-28T01:59:41;16.43;;;9.93;;
15354;SDS011;7777;52.254;9.618;2024-02-28T02:02:07;14.00;;;9.73;;
15354;SDS011;7777;52.254;9.618;2024-02-28T02:04:34;15.43;;;10.27;;
15354;SDS011;7777;52.254;9.618;2024-02-28T02:06:59;15.07;;;10.60;;
15354;SDS011;7777;52.254;9.618;2024-02-28T02:09:26;15.93;;;10.13;;
15354;SDS011;7777;52.254;9.618;2024-02-28T02:11:53;15.67;;;10.00;;
15354;SDS011;7777;52.254;9.618;2024-02-28T02:14:18;17.33;;;9.40;;
15354;SDS011;7777;52.254;9.618;2024-02-28T02:16:44;13.70;;;9.00;;
15354;SDS011;7777;52.254;9.618;2024-02-28T02:19:10;14.20;;;9.53;;
15354;SDS011;7777;52.254;9.618;2024-02-28T02:21:41;14.80;;;10.17;;
15354;SDS011;7777;52.254;9.618;2024-02-28T02:24:16;16.77;;;10.77;;
15354;SDS011;7777;52.254;9.618;2024-02-28T02:26:41;16.60;;;10.87;;
15354;SDS011;7777;52.254;9.618;2024-02-28T02:29:09;15.03;;;10.03;;
15354;SDS011;7777;52.254;9.618;2024-02-28T02:31:35;17.23;;;11.10;;
15354;SDS011;7777;52.254;9.618;2024-02-28T02:34:01;18.90;;;11.63;;
15354;SDS011;7777;52.254;9.618;2024-02-28T02:36:27;17.50;;;10.90;;
15354;SDS011;7777;52.254;9.618;2024-02-28T02:38:53;18.33;;;11.17;;
15354;SDS011;7777;52.254;9.618;2024-02-28T02:41:19;17.30;;;11.50;;
15354;SDS011;7777;52.254;9.618;2024-02-28T02:43:45;16.60;;;11.57;;
15354;SDS011;7777;52.254;9.618;2024-02-28T02:46:10;22.60;;;11.93;;
15354;SDS011;7777;52.254;9.618;2024-02-28T02:48:36;18.67;;;12.20;;
15354;SDS011;7777;52.254;9.618;2024-02-28T02:51:02;19.10;;;12.50;;
15354;SDS011;7777;52.254;9.618;2024-02-28T02:53:28;16.03;;;11.33;;
15354;SDS011;7777;52.254;9.618;2024-02-28T02:55:54;15.13;;;10.50;;
15354;SDS011;7777;52.254;9.618;2024-02-28T02:58:20;18.60;;;11.83;;
15354;SDS011;7777;52.254;9.618;2024-02-28T03:00:46;18.23;;;12.57;;
15354;SDS011;7777;52.254;9.618;2024-02-28T03:03:12;18.37;;;13.07;;
15354;SDS011;7777;52.254;9.618;2024-02-28T03:05:38;19.20;;;12.10;;
15354;SDS011;7777;52.254;9.618;2024-02-28T03:08:05;19.60;;;12.80;;
15354;SDS011;7777;52.254;9.618;2024-02-28T03:10:31;18.83;;;13.00;;
15354;SDS011;7777;52.254;9.618;2024-02-28T03:12:57;19.60;;;13.07;;
15354;SDS011;7777;52.254;9.618;2024-02-28T03:15:23;19.73;;;13.43;;
15354;SDS011;7777;52.254;9.618;2024-02-28T03:17:48;19.90;;;13.47;;
15354;SDS011;7777;52.254;9.618;2024-02-28T03:20:14;19.97;;;13.17;;
15354;SDS011;7777;52.254;9.618;2024-02-28T03:22:40;21.33;;;13.10;;
15354;SDS011;7777;52.254;9.618;2024-02-28T03:25:06;22.70;;;13.73;;
15354;SDS011;7777;52.254;9.618;2024-02-28T03:27:32;23.00;;;14.90;;
15354;SDS011;7777;52.254;9.618;2024-02-28T03:29:58;21.00;;;14.43;;
15354;SDS011;7777;52.254;9.618;2024-02-28T03:32:24;19.77;;;12.87;;
15354;SDS011;7777;52.254;9.618;2024-02-28T03:34:50;20.60;;;14.20;;
15354;SDS011;7777;52.254;9.618;2024-02-28T03:37:16;21.03;;;13.93;;
15354;SDS011;7777;52.254;9.618;2024-02-28T03:39:41;20.00;;;13.17;;
15354;SDS011;7777;52.254;9.618;2024-02-28T03:42:09;20.10;;;13.17;;
15354;SDS011;7777;52.254;9.618;2024-02-28T03:44:34;21.80;;;13.67;;
15354;SDS011;7777;52.254;9.618;2024-02-28T03:47:00;20.97;;;14.20;;
15354;SDS011;7777;52.254;9.618;2024-02-28T03:49:26;19.20;;;13.77;;
15354;SDS011;7777;52.254;9.618;2024-02-28T03:51:52;20.30;;;13.83;;
15354;SDS011;7777;52.254;9.618;2024-02-28T03:54:17;21.97;;;14.20;;
15354;SDS011;7777;52.254;9.618;2024-02-28T03:56:43;18.70;;;13.87;;
15354;SDS011;7777;52.254;9.618;2024-02-28T03:59:09;23.33;;;14.97;;
15354;SDS011;7777;52.254;9.618;2024-02-28T04:01:34;20.63;;;14.03;;
15354;SDS011;7777;52.254;9.618;2024-02-28T04:04:00;19.20;;;13.73;;
15354;SDS011;7777;52.254;9.618;2024-02-28T04:06:27;20.93;;;14.37;;
15354;SDS011;7777;52.254;9.618;2024-02-28T04:08:53;21.57;;;14.73;;
15354;SDS011;7777;52.254;9.618;2024-02-28T04:11:19;19.03;;;13.77;;
15354;SDS011;7777;52.254;9.618;2024-02-28T04:13:46;21.43;;;14.17;;
15354;SDS011;7777;52.254;9.618;2024-02-28T04:16:12;22.40;;;15.00;;
15354;SDS011;7777;52.254;9.618;2024-02-28T04:18:38;26.43;;;15.37;;
15354;SDS011;7777;52.254;9.618;2024-02-28T04:21:04;20.80;;;14.33;;
15354;SDS011;7777;52.254;9.618;2024-02-28T04:23:30;20.17;;;14.53;;
15354;SDS011;7777;52.254;9.618;2024-02-28T04:25:56;23.40;;;16.40;;
15354;SDS011;7777;52.254;9.618;2024-02-28T04:28:22;23.67;;;15.87;;
15354;SDS011;7777;52.254;9.618;2024-02-28T04:30:48;24.77;;;16.97;;
15354;SDS011;7777;52.254;9.618;2024-02-28T04:33:15;26.47;;;17.43;;
15354;SDS011;7777;52.254;9.618;2024-02-28T04:35:40;25.10;;;16.50;;
15354;SDS011;7777;52.254;9.618;2024-02-28T04:38:06;29.60;;;16.83;;
15354;SDS011;7777;52.254;9.618;2024-02-28T04:40:32;24.40;;;16.57;;
15354;SDS011;7777;52.254;9.618;2024-02-28T04:42:58;26.43;;;17.27;;
15354;SDS011;7777;52.254;9.618;2024-02-28T04:45:24;23.57;;;16.13;;
15354;SDS011;7777;52.254;9.618;2024-02-28T04:47:52;26.57;;;16.93;;
15354;SDS011;7777;52.254;9.618;2024-02-28T04:50:19;25.97;;;17.07;;
15354;SDS011;7777;52.254;9.618;2024-02-28T04:52:44;28.13;;;18.10;;
15354;SDS011;7777;52.254;9.618;2024-02-28T04:55:10;26.57;;;16.67;;
15354;SDS011;7777;52.254;9.618;2024-02-28T04:57:37;27.27;;;17.30;;
15354;SDS011;7777;52.254;9.618;2024-02-28T05:00:03;26.47;;;17.50;;
15354;SDS011;7777;52.254;9.618;2024-02-28T05:02:30;26.37;;;17.53;;
15354;SDS011;7777;52.254;9.618;2024-02-28T05:04:55;25.77;;;16.70;;
15354;SDS011;7777;52.254;9.618;2024-02-28T05:07:23;28.97;;;18.33;;
15354;SDS011;7777;52.254;9.618;2024-02-28T05:09:49;27.97;;;18.43;;
15354;SDS011;7777;52.254;9.618;2024-02-28T05:12:15;26.43;;;16.83;;
15354;SDS011;7777;52.254;9.618;2024-02-28T05:14:41;30.00;;;18.13;;
15354;SDS011;7777;52.254;9.618;2024-02-28T05:17:08;29.10;;;18.73;;
15354;SDS011;7777;52.254;9.618;2024-02-28T05:19:33;28.30;;;17.97;;
15354;SDS011;7777;52.254;9.618;2024-02-28T05:21:59;27.63;;;17.93;;
15354;SDS011;7777;52.254;9.618;2024-02-28T05:24:26;25.87;;;17.80;;
15354;SDS011;7777;52.254;9.618;2024-02-28T05:26:51;27.90;;;18.40;;
15354;SDS011;7777;52.254;9.618;2024-02-28T05:29:17;30.17;;;18.37;;
15354;SDS011;7777;52.254;9.618;2024-02-28T05:31:43;30.33;;;18.53;;
15354;SDS011;7777;52.254;9.618;2024-02-28T05:34:09;28.23;;;17.67;;
15354;SDS011;7777;52.254;9.618;2024-02-28T05:36:36;29.20;;;19.07;;
15354;SDS011;7777;52.254;9.618;2024-02-28T05:39:01;27.87;;;18.77;;
15354;SDS011;7777;52.254;9.618;2024-02-28T05:41:30;32.57;;;18.40;;
15354;SDS011;7777;52.254;9.618;2024-02-28T05:43:56;30.10;;;19.17;;
15354;SDS011;7777;52.254;9.618;2024-02-28T05:46:22;28.33;;;18.37;;
15354;SDS011;7777;52.254;9.618;2024-02-28T05:48:48;30.13;;;18.63;;
15354;SDS011;7777;52.254;9.618;2024-02-28T05:51:14;31.33;;;18.33;;
15354;SDS011;7777;52.254;9.618;2024-02-28T05:53:42;29.90;;;18.70;;
15354;SDS011;7777;52.254;9.618;2024-02-28T05:56:08;27.43;;;18.43;;
15354;SDS011;7777;52.254;9.618;2024-02-28T05:58:45;29.03;;;18.60;;
15354;SDS011;7777;52.254;9.618;2024-02-28T06:01:14;30.83;;;19.03;;
15354;SDS011;7777;52.254;9.618;2024-02-28T06:03:47;25.17;;;17.83;;
15354;SDS011;7777;52.254;9.618;2024-02-28T06:06:13;27.57;;;16.97;;
15354;SDS011;7777;52.254;9.618;2024-02-28T06:08:40;28.17;;;18.37;;
15354;SDS011;7777;52.254;9.618;2024-02-28T06:11:07;27.47;;;17.23;;
15354;SDS011;7777;52.254;9.618;2024-02-28T06:13:33;28.10;;;18.77;;
15354;SDS011;7777;52.254;9.618;2024-02-28T06:15:59;28.20;;;17.80;;
15354;SDS011;7777;52.254;9.618;2024-02-28T06:18:25;31.10;;;19.27;;
15354;SDS011;7777;52.254;9.618;2024-02-28T06:20:55;29.40;;;18.77;;
15354;SDS011;7777;52.254;9.618;2024-02-28T06:23:21;30.63;;;19.00;;
15354;SDS011;7777;52.254;9.618;2024-02-28T06:25:50;28.50;;;17.73;;
15354;SDS011;7777;52.254;9.618;2024-02-28T06:28:16;31.20;;;18.77;;
15354;SDS011;7777;52.254;9.618;2024-02-28T06:30:42;28.37;;;18.80;;
15354;SDS011;7777;52.254;9.618;2024-02-28T06:33:14;29.37;;;17.93;;
15354;SDS011;7777;52.254;9.618;2024-02-28T06:35:40;33.47;;;20.30;;
15354;SDS011;7777;52.254;9.618;2024-02-28T06:38:07;28.87;;;18.93;;
15354;SDS011;7777;52.254;9.618;2024-02-28T06:40:33;32.53;;;20.23;;
15354;SDS011;7777;52.254;9.618;2024-02-28T06:42:59;30.80;;;19.33;;
15354;SDS011;7777;52.254;9.618;2024-02-28T06:45:26;29.70;;;19.60;;
15354;SDS011;7777;52.254;9.618;2024-02-28T06:47:52;31.20;;;20.67;;
15354;SDS011;7777;52.254;9.618;2024-02-28T06:50:19;33.73;;;20.77;;
15354;SDS011;7777;52.254;9.618;2024-02-28T06:52:45;34.13;;;21.30;;
15354;SDS011;7777;52.254;9.618;2024-02-28T06:55:11;32.30;;;20.37;;
15354;SDS011;7777;52.254;9.618;2024-02-28T06:57:37;34.93;;;20.53;;
15354;SDS011;7777;52.254;9.618;2024-02-28T07:00:04;33.13;;;21.07;;
15354;SDS011;7777;52.254;9.618;2024-02-28T07:02:35;33.87;;;21.03;;
15354;SDS011;7777;52.254;9.618;2024-02-28T07:05:01;32.57;;;21.17;;
15354;SDS011;7777;52.254;9.618;2024-02-28T07:07:29;32.27;;;19.97;;
15354;SDS011;7777;52.254;9.618;2024-02-28T07:09:56;33.63;;;20.40;;
15354;SDS011;7777;52.254;9.618;2024-02-28T07:12:22;33.77;;;21.17;;
15354;SDS011;7777;52.254;9.618;2024-02-28T07:14:49;35.97;;;21.27;;
15354;SDS011;7777;52.254;9.618;2024-02-28T07:17:15;34.20;;;21.63;;
15354;SDS011;7777;52.254;9.618;2024-02-28T07:19:41;34.30;;;21.93;;
15354;SDS011;7777;52.254;9.618;2024-02-28T07:22:06;33.20;;;21.73;;
15354;SDS011;7777;52.254;9.618;2024-02-28T07:24:32;34.50;;;21.03;;
15354;SDS011;7777;52.254;9.618;2024-02-28T07:26:58;37.13;;;22.77;;
15354;SDS011;7777;52.254;9.618;2024-02-28T07:29:23;35.00;;;21.23;;
15354;SDS011;7777;52.254;9.618;2024-02-28T07:31:49;36.63;;;21.87;;
15354;SDS011;7777;52.254;9.618;2024-02-28T07:34:15;33.53;;;21.57;;
15354;SDS011;7777;52.254;9.618;2024-02-28T07:36:41;33.30;;;21.33;;
15354;SDS011;7777;52.254;9.618;2024-02-28T07:39:07;35.37;;;21.73;;
15354;SDS011;7777;52.254;9.618;2024-02-28T07:41:37;36.80;;;21.47;;
15354;SDS011;7777;52.254;9.618;2024-02-28T07:44:06;36.80;;;21.57;;
15354;SDS011;7777;52.254;9.618;2024-02-28T07:46:33;35.30;;;21.10;;
15354;SDS011;7777;52.254;9.618;2024-02-28T07:49:00;33.57;;;20.57;;
15354;SDS011;7777;52.254;9.618;2024-02-28T07:51:28;35.87;;;21.53;;
15354;SDS011;7777;52.254;9.618;2024-02-28T07:53:54;36.30;;;21.40;;
15354;SDS011;7777;52.254;9.618;2024-02-28T07:56:20;35.13;;;21.47;;
15354;SDS011;7777;52.254;9.618;2024-02-28T07:58:46;39.67;;;21.60;;
15354;SDS011;7777;52.254;9.618;2024-02-28T08:01:12;41.03;;;23.97;;
15354;SDS011;7777;52.254;9.618;2024-02-28T08:03:38;37.37;;;22.63;;
15354;SDS011;7777;52.254;9.618;2024-02-28T08:06:04;40.23;;;23.10;;
15354;SDS011;7777;52.254;9.618;2024-02-28T08:08:30;30.37;;;19.97;;
15354;SDS011;7777;52.254;9.618;2024-02-28T08:10:57;37.17;;;22.57;;
15354;SDS011;7777;52.254;9.618;2024-02-28T08:13:23;34.13;;;20.87;;
15354;SDS011;7777;52.254;9.618;2024-02-28T08:15:53;34.03;;;21.30;;
15354;SDS011;7777;52.254;9.618;2024-02-28T08:18:19;32.63;;;20.03;;
15354;SDS011;7777;52.254;9.618;2024-02-28T08:20:45;34.50;;;21.27;;
15354;SDS011;7777;52.254;9.618;2024-02-28T08:23:11;33.13;;;20.27;;
15354;SDS011;7777;52.254;9.618;2024-02-28T08:25:37;35.53;;;21.07;;
15354;SDS011;7777;52.254;9.618;2024-02-28T08:28:03;37.03;;;21.67;;
15354;SDS011;7777;52.254;9.618;2024-02-28T08:30:29;36.10;;;20.97;;
15354;SDS011;7777;52.254;9.618;2024-02-28T08:32:56;34.77;;;21.73;;
15354;SDS011;7777;52.254;9.618;2024-02-28T08:35:23;35.50;;;20.87;;
15354;SDS011;7777;52.254;9.618;2024-02-28T08:37:49;37.83;;;22.43;;
15354;SDS011;7777;52.254;9.618;2024-02-28T08:40:14;36.90;;;21.40;;
15354;SDS011;7777;52.254;9.618;2024-02-28T08:42:40;35.20;;;21.20;;
15354;SDS011;7777;52.254;9.618;2024-02-28T08:45:06;32.60;;;20.17;;
15354;SDS011;7777;52.254;9.618;2024-02-28T08:47:33;33.27;;;20.53;;
15354;SDS011;7777;52.254;9.618;2024-02-28T08:49:59;33.63;;;21.37;;
15354;SDS011;7777;52.254;9.618;2024-02-28T08:52:24;35.77;;;22.27;;
15354;SDS011;7777;52.254;9.618;2024-02-28T08:54:50;34.67;;;22.47;;
15354;SDS011;7777;52.254;9.618;2024-02-28T08:57:18;36.97;;;22.33;;
15354;SDS011;7777;52.254;9.618;2024-02-28T08:59:47;35.10;;;21.07;;
15354;SDS011;7777;52.254;9.618;2024-02-28T09:02:13;37.00;;;22.73;;
15354;SDS011;7777;52.254;9.618;2024-02-28T09:04:38;39.80;;;23.47;;
15354;SDS011;7777;52.254;9.618;2024-02-28T09:07:04;38.47;;;22.17;;
15354;SDS011;7777;52.254;9.618;2024-02-28T09:09:30;39.10;;;23.10;;
15354;SDS011;7777;52.254;9.618;2024-02-28T09:11:59;37.57;;;22.60;;
15354;SDS011;7777;52.254;9.618;2024-02-28T09:14:27;34.23;;;22.10;;
15354;SDS011;7777;52.254;9.618;2024-02-28T09:16:53;35.47;;;21.53;;
15354;SDS011;7777;52.254;9.618;2024-02-28T09:19:28;33.10;;;21.07;;
15354;SDS011;7777;52.254;9.618;2024-02-28T09:21:54;37.37;;;21.37;;
15354;SDS011;7777;52.254;9.618;2024-02-28T09:24:20;37.40;;;21.90;;
15354;SDS011;7777;52.254;9.618;2024-02-28T09:26:46;35.50;;;21.27;;
15354;SDS011;7777;52.254;9.618;2024-02-28T09:29:12;35.73;;;22.33;;
15354;SDS011;7777;52.254;9.618;2024-02-28T09:31:38;38.73;;;23.23;;
15354;SDS011;7777;52.254;9.618;2024-02-28T09:34:04;37.53;;;22.90;;
15354;SDS011;7777;52.254;9.618;2024-02-28T09:36:32;36.43;;;22.03;;
15354;SDS011;7777;52.254;9.618;2024-02-28T09:39:05;37.30;;;21.47;;
15354;SDS011;7777;52.254;9.618;2024-02-28T09:41:31;40.17;;;22.07;;
15354;SDS011;7777;52.254;9.618;2024-02-28T09:43:56;38.83;;;24.17;;
15354;SDS011;7777;52.254;9.618;2024-02-28T09:46:23;41.20;;;24.03;;
15354;SDS011;7777;52.254;9.618;2024-02-28T09:48:49;37.47;;;23.87;;
15354;SDS011;7777;52.254;9.618;2024-02-28T09:51:18;40.97;;;23.07;;
15354;SDS011;7777;52.254;9.618;2024-02-28T09:53:46;38.27;;;23.07;;
15354;SDS011;7777;52.254;9.618;2024-02-28T09:56:12;38.60;;;22.50;;
15354;SDS011;7777;52.254;9.618;2024-02-28T09:58:40;36.53;;;21.87;;
15354;SDS011;7777;52.254;9.618;2024-02-28T10:01:07;38.73;;;23.77;;
15354;SDS011;7777;52.254;9.618;2024-02-28T10:03:35;37.87;;;22.87;;
15354;SDS011;7777;52.254;9.618;2024-02-28T10:06:03;39.47;;;24.00;;
15354;SDS011;7777;52.254;9.618;2024-02-28T10:08:28;37.63;;;23.33;;
15354;SDS011;7777;52.254;9.618;2024-02-28T10:10:54;36.17;;;22.73;;
15354;SDS011;7777;52.254;9.618;2024-02-28T10:13:22;36.73;;;21.90;;
15354;SDS011;7777;52.254;9.618;2024-02-28T10:15:49;41.80;;;24.10;;
15354;SDS011;7777;52.254;9.618;2024-02-28T10:18:15;41.90;;;23.77;;
15354;SDS011;7777;52.254;9.618;2024-02-28T10:20:41;37.33;;;22.57;;
15354;SDS011;7777;52.254;9.618;2024-02-28T10:23:07;37.37;;;23.03;;
15354;SDS011;7777;52.254;9.618;2024-02-28T10:25:47;41.20;;;23.90;;
15354;SDS011;7777;52.254;9.618;2024-02-28T10:28:13;43.07;;;24.50;;
15354;SDS011;7777;52.254;9.618;2024-02-28T10:30:40;44.83;;;24.47;;
15354;SDS011;7777;52.254;9.618;2024-02-28T10:33:11;39.93;;;23.43;;
15354;SDS011;7777;52.254;9.618;2024-02-28T10:35:41;41.23;;;24.07;;
15354;SDS011;7777;52.254;9.618;2024-02-28T10:38:09;42.07;;;23.50;;
15354;SDS011;7777;52.254;9.618;2024-02-28T10:40:36;43.20;;;25.20;;
15354;SDS011;7777;52.254;9.618;2024-02-28T10:43:04;39.83;;;23.40;;
15354;SDS011;7777;52.254;9.618;2024-02-28T10:45:33;42.90;;;26.67;;
15354;SDS011;7777;52.254;9.618;2024-02-28T10:48:04;38.17;;;23.47;;
15354;SDS011;7777;52.254;9.618;2024-02-28T10:50:30;43.13;;;24.80;;
15354;SDS011;7777;52.254;9.618;2024-02-28T10:52:58;45.03;;;26.77;;
15354;SDS011;7777;52.254;9.618;2024-02-28T10:55:33;42.60;;;24.87;;
15354;SDS011;7777;52.254;9.618;2024-02-28T10:58:08;49.80;;;26.93;;
15354;SDS011;7777;52.254;9.618;2024-02-28T11:00:37;42.67;;;26.37;;
15354;SDS011;7777;52.254;9.618;2024-02-28T11:03:04;39.90;;;24.47;;
15354;SDS011;7777;52.254;9.618;2024-02-28T11:05:37;44.30;;;26.13;;
15354;SDS011;7777;52.254;9.618;2024-02-28T11:08:08;44.33;;;25.93;;
15354;SDS011;7777;52.254;9.618;2024-02-28T11:10:40;50.97;;;27.73;;
15354;SDS011;7777;52.254;9.618;2024-02-28T11:13:20;49.37;;;27.73;;
15354;SDS011;7777;52.254;9.618;2024-02-28T11:15:47;48.00;;;27.80;;
15354;SDS011;7777;52.254;9.618;2024-02-28T11:18:13;52.40;;;29.03;;
15354;SDS011;7777;52.254;9.618;2024-02-28T11:20:39;49.40;;;27.40;;
15354;SDS011;7777;52.254;9.618;2024-02-28T11:23:07;46.97;;;26.30;;
15354;SDS011;7777;52.254;9.618;2024-02-28T11:25:36;48.47;;;26.87;;
15354;SDS011;7777;52.254;9.618;2024-02-28T11:28:02;52.67;;;28.33;;
15354;SDS011;7777;52.254;9.618;2024-02-28T11:30:29;54.33;;;27.53;;
15354;SDS011;7777;52.254;9.618;2024-02-28T11:32:54;53.97;;;27.87;;
15354;SDS011;7777;52.254;9.618;2024-02-28T11:35:23;50.77;;;28.10;;
15354;SDS011;7777;52.254;9.618;2024-02-28T11:37:50;48.03;;;27.53;;
15354;SDS011;7777;52.254;9.618;2024-02-28T11:40:18;51.40;;;27.83;;
15354;SDS011;7777;52.254;9.618;2024-02-28T11:42:44;46.10;;;26.63;;
15354;SDS011;7777;52.254;9.618;2024-02-28T11:45:10;50.53;;;27.50;;
15354;SDS011;7777;52.254;9.618;2024-02-28T11:47:36;47.97;;;25.70;;
15354;SDS011;7777;52.254;9.618;2024-02-28T11:50:02;50.07;;;28.27;;
15354;SDS011;7777;52.254;9.618;2024-02-28T11:52:32;44.90;;;26.23;;
15354;SDS011;7777;52.254;9.618;2024-02-28T11:54:58;51.87;;;27.03;;
15354;SDS011;7777;52.254;9.618;2024-02-28T11:57:25;46.87;;;25.93;;
15354;SDS011;7777;52.254;9.618;2024-02-28T11:59:51;53.47;;;27.53;;
15354;SDS011;7777;52.254;9.618;2024-02-28T12:02:17;43.20;;;25.77;;
15354;SDS011;7777;52.254;9.618;2024-02-28T12:04:44;49.27;;;25.93;;
15354;SDS011;7777;52.254;9.618;2024-02-28T12:07:10;46.63;;;26.40;;
15354;SDS011;7777;52.254;9.618;2024-02-28T12:09:37;40.63;;;24.70;;
15354;SDS011;7777;52.254;9.618;2024-02-28T12:12:04;48.87;;;26.47;;
15354;SDS011;7777;52.254;9.618;2024-02-28T12:14:32;46.93;;;27.90;;
15354;SDS011;7777;52.254;9.618;2024-02-28T12:17:03;47.53;;;27.20;;
15354;SDS011;7777;52.254;9.618;2024-02-28T12:19:29;42.37;;;25.20;;
15354;SDS011;7777;52.254;9.618;2024-02-28T12:21:55;48.23;;;26.67;;
15354;SDS011;7777;52.254;9.618;2024-02-28T12:24:22;45.83;;;27.27;;
15354;SDS011;7777;52.254;9.618;2024-02-28T12:26:48;41.50;;;23.87;;
15354;SDS011;7777;52.254;9.618;2024-02-28T12:29:13;41.60;;;24.00;;
15354;SDS011;7777;52.254;9.618;2024-02-28T12:31:39;53.70;;;26.83;;
15354;SDS011;7777;52.254;9.618;2024-02-28T12:34:06;42.47;;;24.60;;
15354;SDS011;7777;52.254;9.618;2024-02-28T12:36:32;44.77;;;25.57;;
15354;SDS011;7777;52.254;9.618;2024-02-28T12:38:59;45.70;;;26.97;;
15354;SDS011;7777;52.254;9.618;2024-02-28T12:41:25;40.50;;;24.53;;
15354;SDS011;7777;52.254;9.618;2024-02-28T12:43:52;43.33;;;24.17;;
15354;SDS011;7777;52.254;9.618;2024-02-28T12:46:17;44.13;;;24.83;;
15354;SDS011;7777;52.254;9.618;2024-02-28T12:48:43;44.53;;;25.27;;
15354;SDS011;7777;52.254;9.618;2024-02-28T12:51:20;42.30;;;23.27;;
15354;SDS011;7777;52.254;9.618;2024-02-28T12:54:11;39.97;;;24.20;;
15354;SDS011;7777;52.254;9.618;2024-02-28T12:56:39;40.43;;;24.47;;
15354;SDS011;7777;52.254;9.618;2024-02-28T12:59:08;42.03;;;23.83;;
15354;SDS011;7777;52.254;9.618;2024-02-28T13:01:34;41.17;;;24.57;;
15354;SDS011;7777;52.254;9.618;2024-02-28T13:04:00;41.27;;;23.20;;
15354;SDS011;7777;52.254;9.618;2024-02-28T13:06:26;40.73;;;25.07;;
15354;SDS011;7777;52.254;9.618;2024-02-28T13:08:52;41.17;;;24.53;;
15354;SDS011;7777;52.254;9.618;2024-02-28T13:11:18;45.30;;;24.53;;
15354;SDS011;7777;52.254;9.618;2024-02-28T13:13:46;40.37;;;24.10;;
15354;SDS011;7777;52.254;9.618;2024-02-28T13:16:16;39.00;;;23.60;;
15354;SDS011;7777;52.254;9.618;2024-02-28T13:18:43;38.00;;;23.00;;
15354;SDS011;7777;52.254;9.618;2024-02-28T13:21:09;40.07;;;23.07;;
15354;SDS011;7777;52.254;9.618;2024-02-28T13:23:35;36.03;;;23.10;;
15354;SDS011;7777;52.254;9.618;2024-02-28T13:26:02;37.87;;;23.87;;
15354;SDS011;7777;52.254;9.618;2024-02-28T13:28:32;34.53;;;21.57;;
15354;SDS011;7777;52.254;9.618;2024-02-28T13:31:02;38.80;;;22.37;;
15354;SDS011;7777;52.254;9.618;2024-02-28T13:33:31;32.77;;;21.17;;
15354;SDS011;7777;52.254;9.618;2024-02-28T13:35:57;34.77;;;20.60;;
15354;SDS011;7777;52.254;9.618;2024-02-28T13:38:22;34.47;;;22.13;;
15354;SDS011;7777;52.254;9.618;2024-02-28T13:40:48;36.13;;;21.60;;
15354;SDS011;7777;52.254;9.618;2024-02-28T13:43:15;36.60;;;22.23;;
15354;SDS011;7777;52.254;9.618;2024-02-28T13:45:45;34.77;;;20.97;;
15354;SDS011;7777;52.254;9.618;2024-02-28T13:48:22;32.37;;;20.90;;
15354;SDS011;7777;52.254;9.618;2024-02-28T13:50:50;33.93;;;19.93;;
15354;SDS011;7777;52.254;9.618;2024-02-28T13:53:16;33.23;;;20.00;;
15354;SDS011;7777;52.254;9.618;2024-02-28T13:55:42;30.10;;;18.93;;
15354;SDS011;7777;52.254;9.618;2024-02-28T13:58:10;30.40;;;18.73;;
15354;SDS011;7777;52.254;9.618;2024-02-28T14:00:37;35.23;;;20.70;;
15354;SDS011;7777;52.254;9.618;2024-02-28T14:03:04;30.83;;;20.20;;
15354;SDS011;7777;52.254;9.618;2024-02-28T14:05:33;32.20;;;19.97;;
15354;SDS011;7777;52.254;9.618;2024-02-28T14:07:59;33.80;;;20.97;;
15354;SDS011;7777;52.254;9.618;2024-02-28T14:10:25;32.83;;;20.57;;
15354;SDS011;7777;52.254;9.618;2024-02-28T14:12:51;33.57;;;20.13;;
15354;SDS011;7777;52.254;9.618;2024-02-28T14:15:18;28.73;;;18.50;;
15354;SDS011;7777;52.254;9.618;2024-02-28T14:17:44;29.73;;;18.33;;
15354;SDS011;7777;52.254;9.618;2024-02-28T14:20:11;34.33;;;19.03;;
15354;SDS011;7777;52.254;9.618;2024-02-28T14:22:37;31.27;;;18.83;;
15354;SDS011;7777;52.254;9.618;2024-02-28T14:25:06;35.67;;;20.90;;
15354;SDS011;7777;52.254;9.618;2024-02-28T14:27:37;40.33;;;20.00;;
15354;SDS011;7777;52.254;9.618;2024-02-28T14:30:04;30.63;;;19.37;;
15354;SDS011;7777;52.254;9.618;2024-02-28T14:32:33;32.90;;;20.77;;